createdAt,value
2023-02-26T00:01:51.726Z,1.10
2023-02-26T00:04:19.962Z,1.13
2023-02-26T00:06:56.146Z,1.10
2023-02-26T00:09:26.953Z,1.03
2023-02-26T00:11:55.977Z,1.23
2023-02-26T00:14:25.144Z,1.07
2023-02-26T00:17:15.892Z,1.17
2023-02-26T00:19:44.627Z,1.30
2023-02-26T00:22:13.478Z,1.37
2023-02-26T00:24:43.230Z,1.40
2023-02-26T00:27:13.332Z,1.20
2023-02-26T00:29:42.570Z,1.20
2023-02-26T00:32:12.867Z,0.63
2023-02-26T00:34:42.120Z,0.90
2023-02-26T00:37:24.287Z,1.77
2023-02-26T00:40:14.528Z,1.13
2023-02-26T00:42:43.781Z,1.10
2023-02-26T00:45:15.315Z,0.90
2023-02-26T00:47:53.786Z,1.10
2023-02-26T00:50:25.680Z,1.10
2023-02-26T00:53:09.632Z,1.10
2023-02-26T00:55:39.711Z,1.10
2023-02-26T00:58:07.840Z,0.83
2023-02-26T01:00:36.553Z,0.67
2023-02-26T01:03:05.384Z,1.10
2023-02-26T01:05:34.163Z,1.03
2023-02-26T01:08:09.984Z,1.03
2023-02-26T01:10:40.366Z,1.03
2023-02-26T01:13:09.904Z,1.30
2023-02-26T01:15:38.920Z,0.73
2023-02-26T01:18:15.122Z,0.70
2023-02-26T01:20:49.588Z,1.10
2023-02-26T01:23:22.729Z,1.00
2023-02-26T01:25:59.099Z,0.70
2023-02-26T01:28:29.125Z,0.93
2023-02-26T01:31:05.238Z,0.80
2023-02-26T01:33:42.281Z,0.73
2023-02-26T01:36:18.202Z,1.20
2023-02-26T01:38:56.974Z,0.73
2023-02-26T01:41:40.475Z,1.00
2023-02-26T01:44:23.905Z,0.80
2023-02-26T01:47:16.291Z,0.87
2023-02-26T01:49:45.902Z,0.90
2023-02-26T01:53:18.358Z,0.70
2023-02-26T01:55:53.785Z,0.77
2023-02-26T01:58:26.191Z,0.80
2023-02-26T02:10:24.051Z,1.10
2023-02-26T02:13:06.370Z,0.90
2023-02-26T02:15:46.584Z,0.93
2023-02-26T02:18:25.241Z,0.73
2023-02-26T02:21:22.555Z,0.70
2023-02-26T02:24:02.657Z,0.83
2023-02-26T02:27:19.519Z,0.80
2023-02-26T02:30:21.889Z,1.53
2023-02-26T02:32:58.867Z,0.73
2023-02-26T02:35:33.243Z,0.83
2023-02-26T02:38:10.651Z,0.93
2023-02-26T02:40:44.969Z,0.70
2023-02-26T02:43:18.610Z,0.90
2023-02-26T02:45:51.463Z,0.60
2023-02-26T02:48:27.284Z,1.07
2023-02-26T02:51:01.643Z,0.83
2023-02-26T02:53:37.964Z,0.83
2023-02-26T02:56:11.869Z,0.90
2023-02-26T02:58:45.674Z,0.90
2023-02-26T03:01:19.877Z,1.13
2023-02-26T03:04:03.420Z,0.87
2023-02-26T03:06:33.143Z,1.30
2023-02-26T03:09:04.198Z,0.63
2023-02-26T03:11:32.936Z,0.80
2023-02-26T03:14:02.712Z,1.10
2023-02-26T03:17:07.139Z,0.80
2023-02-26T03:19:55.741Z,0.77
2023-02-26T03:22:36.518Z,0.57
2023-02-26T03:25:14.097Z,0.70
2023-02-26T03:27:50.430Z,0.77
2023-02-26T03:30:27.462Z,0.70
2023-02-26T03:33:06.939Z,0.90
2023-02-26T03:35:45.957Z,0.80
2023-02-26T03:38:22.933Z,0.80
2023-02-26T03:40:58.958Z,0.83
2023-02-26T03:43:34.665Z,0.90
2023-02-26T03:46:10.755Z,0.83
2023-02-26T03:48:39.119Z,1.10
2023-02-26T03:51:12.596Z,0.67
2023-02-26T03:54:14.482Z,1.00
2023-02-26T03:56:48.425Z,0.67
2023-02-26T03:59:49.150Z,0.70
2023-02-26T04:03:00.129Z,0.70
2023-02-26T04:05:34.290Z,0.80
2023-02-26T04:08:04.671Z,1.00
2023-02-26T04:10:42.016Z,0.97
2023-02-26T04:13:10.504Z,0.70
2023-02-26T04:15:41.933Z,1.00
2023-02-26T04:18:10.540Z,1.00
2023-02-26T04:20:38.846Z,0.57
2023-02-26T04:23:08.356Z,0.97
2023-02-26T04:25:38.216Z,0.87
2023-02-26T04:28:07.499Z,0.70
2023-02-26T04:30:35.790Z,1.23
2023-02-26T04:33:05.505Z,0.70
2023-02-26T04:35:33.707Z,0.60
2023-02-26T04:38:01.965Z,0.80
2023-02-26T04:40:32.882Z,0.73
2023-02-26T04:43:01.151Z,0.83
2023-02-26T04:45:33.348Z,0.93
2023-02-26T04:48:01.512Z,0.70
2023-02-26T04:50:29.672Z,1.23
2023-02-26T04:52:59.209Z,1.07
2023-02-26T04:55:27.904Z,0.87
2023-02-26T04:57:57.478Z,0.90
2023-02-26T05:00:27.326Z,0.63
2023-02-26T05:02:55.693Z,0.53
2023-02-26T05:05:23.854Z,0.47
2023-02-26T05:07:53.730Z,0.80
2023-02-26T05:10:22.316Z,0.60
2023-02-26T05:12:50.647Z,0.60
2023-02-26T05:15:20.594Z,0.87
2023-02-26T05:17:48.708Z,1.67
2023-02-26T05:20:16.966Z,0.80
2023-02-26T05:22:45.152Z,0.53
2023-02-26T05:25:13.916Z,0.50
2023-02-26T05:27:43.296Z,0.90
2023-02-26T05:30:16.050Z,1.10
2023-02-26T05:32:46.643Z,0.60
2023-02-26T05:35:15.109Z,0.80
2023-02-26T05:37:43.444Z,0.90
2023-02-26T05:40:13.868Z,0.70
2023-02-26T05:42:42.459Z,0.67
2023-02-26T05:45:11.165Z,0.73
2023-02-26T05:47:39.700Z,0.73
2023-02-26T05:50:10.981Z,0.60
2023-02-26T05:52:39.308Z,0.70
2023-02-26T05:55:09.901Z,1.00
2023-02-26T05:57:37.976Z,0.80
2023-02-26T06:00:09.216Z,1.13
2023-02-26T06:02:43.808Z,0.70
2023-02-26T06:05:13.558Z,0.40
2023-02-26T06:07:41.715Z,0.73
2023-02-26T06:10:12.215Z,1.03
2023-02-26T06:12:40.804Z,0.60
2023-02-26T06:15:11.277Z,0.60
2023-02-26T06:17:41.041Z,0.50
2023-02-26T06:20:11.381Z,1.10
2023-02-26T06:22:40.889Z,0.50
2023-02-26T06:25:10.172Z,0.80
2023-02-26T06:27:38.370Z,0.83
2023-02-26T06:30:08.334Z,0.60
2023-02-26T06:32:36.637Z,0.70
2023-02-26T06:35:06.212Z,1.23
2023-02-26T06:37:34.614Z,0.50
2023-02-26T06:40:05.253Z,0.50
2023-02-26T06:42:33.468Z,0.60
2023-02-26T06:45:01.586Z,1.03
2023-02-26T06:47:29.743Z,0.80
2023-02-26T06:49:57.901Z,0.70
2023-02-26T06:52:26.607Z,0.70
2023-02-26T06:54:54.817Z,0.90
2023-02-26T06:57:24.423Z,1.00
2023-02-26T06:59:52.641Z,0.90
2023-02-26T07:02:24.067Z,1.03
2023-02-26T07:04:52.689Z,0.73
2023-02-26T07:07:20.898Z,1.10
2023-02-26T07:09:49.354Z,0.93
2023-02-26T07:12:17.568Z,0.60
2023-02-26T07:14:47.138Z,0.80
2023-02-26T07:17:20.333Z,1.10
2023-02-26T07:19:49.231Z,1.03
2023-02-26T07:22:20.892Z,0.63
2023-02-26T07:24:51.114Z,0.70
2023-02-26T07:27:19.399Z,0.80
2023-02-26T07:29:48.868Z,0.73
2023-02-26T07:32:16.996Z,1.10
2023-02-26T07:34:45.169Z,1.00
2023-02-26T07:37:13.355Z,0.87
2023-02-26T07:39:41.750Z,1.00
2023-02-26T07:42:10.397Z,0.70
2023-02-26T07:44:40.782Z,0.67
2023-02-26T07:47:10.825Z,0.80
2023-02-26T07:49:39.080Z,1.03
2023-02-26T07:52:08.078Z,0.77
2023-02-26T07:54:36.892Z,1.37
2023-02-26T07:57:05.829Z,1.20
2023-02-26T07:59:33.992Z,1.20
2023-02-26T08:02:02.030Z,1.00
2023-02-26T08:04:32.912Z,1.00
2023-02-26T08:07:01.493Z,1.13
2023-02-26T08:09:30.603Z,0.97
2023-02-26T08:11:58.900Z,0.93
2023-02-26T08:14:36.255Z,0.90
2023-02-26T08:17:28.642Z,1.40
2023-02-26T08:19:58.398Z,0.80
2023-02-26T08:22:27.003Z,1.03
2023-02-26T08:24:55.729Z,0.50
2023-02-26T08:27:26.572Z,1.10
2023-02-26T08:29:55.329Z,1.00
2023-02-26T08:32:32.998Z,0.90
2023-02-26T08:35:02.971Z,0.70
2023-02-26T08:37:31.304Z,0.77
2023-02-26T08:40:05.450Z,0.63
2023-02-26T08:42:37.074Z,0.50
2023-02-26T08:45:35.129Z,0.97
2023-02-26T08:48:48.201Z,0.70
2023-02-26T08:51:43.791Z,0.77
2023-02-26T08:54:24.602Z,0.63
2023-02-26T08:56:55.810Z,1.17
2023-02-26T08:59:24.103Z,0.63
2023-02-26T09:01:58.557Z,0.87
2023-02-26T09:04:30.899Z,0.70
2023-02-26T09:07:01.235Z,0.93
2023-02-26T09:09:29.384Z,0.80
2023-02-26T09:11:58.906Z,1.13
2023-02-26T09:14:27.395Z,1.27
2023-02-26T09:16:55.672Z,0.60
2023-02-26T09:19:24.214Z,0.97
2023-02-26T09:21:52.743Z,0.63
2023-02-26T09:24:26.213Z,0.57
2023-02-26T09:26:54.682Z,0.50
2023-02-26T09:29:27.698Z,0.63
2023-02-26T09:31:56.516Z,0.50
2023-02-26T09:34:24.887Z,1.10
2023-02-26T09:36:53.208Z,0.77
2023-02-26T09:39:23.731Z,0.73
2023-02-26T09:41:58.783Z,0.60
2023-02-26T09:44:30.716Z,0.60
2023-02-26T09:47:05.137Z,0.70
2023-02-26T09:49:51.026Z,0.77
2023-02-26T09:52:27.056Z,0.70
2023-02-26T09:55:01.923Z,0.70
2023-02-26T09:57:35.385Z,0.70
2023-02-26T10:00:16.271Z,0.53
2023-02-26T10:02:59.560Z,0.63
2023-02-26T10:05:44.398Z,0.37
2023-02-26T10:08:17.733Z,0.73
2023-02-26T10:11:04.932Z,0.40
2023-02-26T10:13:57.239Z,0.60
2023-02-26T10:16:31.862Z,0.60
2023-02-26T10:19:08.163Z,0.57
2023-02-26T10:21:44.692Z,0.50
2023-02-26T10:24:30.479Z,0.80
2023-02-26T10:27:06.787Z,0.33
2023-02-26T10:29:49.770Z,0.67
2023-02-26T10:32:33.532Z,0.50
2023-02-26T10:35:09.165Z,0.60
2023-02-26T10:37:49.676Z,0.70
2023-02-26T10:40:30.747Z,0.87
2023-02-26T10:43:14.570Z,0.80
2023-02-26T10:46:02.395Z,0.70
2023-02-26T10:48:53.657Z,0.90
2023-02-26T10:51:30.297Z,0.57
2023-02-26T10:54:05.179Z,1.10
2023-02-26T10:56:37.221Z,0.43
2023-02-26T10:59:05.774Z,1.33
2023-02-26T11:01:35.620Z,0.63
2023-02-26T11:04:09.020Z,0.80
2023-02-26T11:06:43.630Z,0.33
2023-02-26T11:09:22.307Z,0.80
2023-02-26T11:11:55.725Z,0.77
2023-02-26T11:14:29.329Z,0.50
2023-02-26T11:17:11.526Z,0.40
2023-02-26T11:19:45.600Z,0.50
2023-02-26T11:22:17.791Z,0.60
2023-02-26T11:24:49.813Z,1.00
2023-02-26T11:27:23.644Z,0.70
2023-02-26T11:30:00.528Z,0.70
2023-02-26T11:32:35.042Z,0.60
2023-02-26T11:35:30.185Z,0.53
2023-02-26T11:38:03.550Z,0.60
2023-02-26T11:40:42.135Z,0.67
2023-02-26T11:43:18.300Z,0.70
2023-02-26T11:45:54.504Z,0.60
2023-02-26T11:48:37.444Z,0.30
2023-02-26T11:51:08.947Z,0.77
2023-02-26T11:53:46.212Z,0.60
2023-02-26T11:56:20.600Z,0.60
2023-02-26T11:58:56.438Z,0.40
2023-02-26T12:01:30.375Z,0.80
2023-02-26T12:04:04.438Z,0.60
2023-02-26T12:06:33.000Z,0.73
2023-02-26T12:09:01.470Z,0.50
2023-02-26T12:12:13.870Z,0.63
2023-02-26T12:15:04.464Z,0.77
2023-02-26T12:17:51.294Z,0.83
2023-02-26T12:20:30.846Z,0.90
2023-02-26T12:23:28.832Z,0.50
2023-02-26T12:26:17.192Z,0.90
2023-02-26T12:29:16.382Z,0.53
2023-02-26T12:32:23.499Z,0.47
2023-02-26T12:35:33.494Z,0.80
2023-02-26T12:38:17.139Z,0.93
2023-02-26T12:41:12.377Z,0.70
2023-02-26T12:43:51.234Z,0.50
2023-02-26T12:46:55.930Z,0.60
2023-02-26T12:49:50.696Z,0.63
2023-02-26T12:53:03.321Z,0.70
2023-02-26T12:55:52.159Z,0.83
2023-02-26T12:58:59.293Z,0.67
2023-02-26T13:02:00.593Z,0.40
2023-02-26T13:04:56.121Z,0.70
2023-02-26T13:07:50.846Z,0.70
2023-02-26T13:10:30.771Z,0.60
2023-02-26T13:13:21.104Z,0.60
2023-02-26T13:16:08.533Z,0.70
2023-02-26T13:18:50.906Z,0.50
2023-02-26T13:21:26.464Z,0.67
2023-02-26T13:24:00.744Z,0.67
2023-02-26T13:26:30.721Z,0.80
2023-02-26T13:29:08.371Z,0.90
2023-02-26T13:31:44.747Z,1.00
2023-02-26T13:34:20.912Z,0.97
2023-02-26T13:36:51.837Z,0.80
2023-02-26T13:39:44.539Z,0.70
2023-02-26T13:42:28.860Z,0.90
2023-02-26T13:45:24.739Z,0.70
2023-02-26T13:48:22.141Z,0.63
2023-02-26T13:51:03.781Z,0.80
2023-02-26T13:53:50.033Z,0.70
2023-02-26T13:56:24.092Z,0.87
2023-02-26T13:59:03.890Z,0.70
2023-02-26T14:01:48.920Z,0.73
2023-02-26T14:04:29.153Z,0.93
2023-02-26T14:07:00.540Z,1.00
2023-02-26T14:09:46.838Z,1.13
2023-02-26T14:12:38.256Z,0.80
2023-02-26T14:15:50.571Z,0.80
2023-02-26T14:18:36.242Z,1.00
2023-02-26T14:21:51.172Z,1.00
2023-02-26T14:24:26.240Z,1.00
2023-02-26T14:27:23.473Z,0.80
2023-02-26T14:30:18.024Z,1.03
2023-02-26T14:32:54.974Z,1.07
2023-02-26T14:35:29.681Z,1.07
2023-02-26T14:38:03.092Z,0.80
2023-02-26T14:40:37.558Z,0.87
2023-02-26T14:43:10.670Z,0.77
2023-02-26T14:45:45.829Z,0.70
2023-02-26T14:48:17.917Z,1.03
2023-02-26T14:51:06.622Z,0.97
2023-02-26T14:54:21.201Z,0.90
2023-02-26T14:57:04.023Z,0.90
2023-02-26T15:00:10.054Z,0.97
2023-02-26T15:03:02.520Z,1.00
2023-02-26T15:05:59.772Z,0.90
2023-02-26T15:08:48.476Z,0.90
2023-02-26T15:11:45.520Z,0.60
2023-02-26T15:14:50.992Z,1.10
2023-02-26T15:17:48.743Z,1.23
2023-02-26T15:20:30.522Z,1.00
2023-02-26T15:23:28.952Z,0.97
2023-02-26T15:25:58.128Z,0.80
2023-02-26T15:28:31.414Z,1.00
2023-02-26T15:31:02.313Z,1.10
2023-02-26T15:33:30.902Z,0.90
2023-02-26T15:36:01.143Z,1.00
2023-02-26T15:38:40.211Z,0.63
2023-02-26T15:41:08.761Z,0.97
2023-02-26T15:43:37.864Z,0.77
2023-02-26T15:46:06.968Z,0.97
2023-02-26T15:48:42.199Z,0.70
2023-02-26T15:51:14.425Z,0.70
2023-02-26T15:53:48.921Z,0.90
2023-02-26T15:56:25.434Z,0.90
2023-02-26T15:58:59.483Z,0.80
2023-02-26T16:01:30.862Z,0.70
2023-02-26T16:04:03.838Z,1.23
2023-02-26T16:06:36.290Z,0.60
2023-02-26T16:09:07.900Z,0.93
2023-02-26T16:11:40.902Z,0.73
2023-02-26T16:14:17.354Z,0.70
2023-02-26T16:16:49.449Z,0.80
2023-02-26T16:19:21.759Z,0.77
2023-02-26T16:21:52.932Z,0.80
2023-02-26T16:24:24.050Z,0.87
2023-02-26T16:26:57.569Z,0.83
2023-02-26T16:29:30.589Z,0.73
2023-02-26T16:32:02.797Z,0.87
2023-02-26T16:34:38.587Z,0.90
2023-02-26T16:37:27.608Z,0.77
2023-02-26T16:40:10.173Z,0.87
2023-02-26T16:42:46.497Z,0.80
2023-02-26T16:45:26.128Z,0.80
2023-02-26T16:47:58.839Z,0.70
2023-02-26T16:50:30.718Z,0.70
2023-02-26T16:53:07.043Z,0.70
2023-02-26T16:55:40.560Z,1.30
2023-02-26T16:58:15.766Z,0.93
2023-02-26T17:00:46.796Z,0.77
2023-02-26T17:03:21.000Z,1.03
2023-02-26T17:05:57.147Z,1.17
2023-02-26T17:08:32.516Z,1.00
2023-02-26T17:11:07.183Z,1.00
2023-02-26T17:13:38.237Z,1.00
2023-02-26T17:16:12.461Z,1.03
2023-02-26T17:18:40.779Z,0.93
2023-02-26T17:21:10.115Z,1.10
2023-02-26T17:23:39.885Z,1.03
2023-02-26T17:26:09.414Z,0.97
2023-02-26T17:28:43.732Z,0.80
2023-02-26T17:31:13.038Z,0.90
2023-02-26T17:33:45.302Z,1.20
2023-02-26T17:36:18.712Z,1.00
2023-02-26T17:38:47.626Z,0.90
2023-02-26T17:41:20.274Z,1.10
2023-02-26T17:43:48.435Z,0.90
2023-02-26T17:46:16.641Z,0.80
2023-02-26T17:48:44.880Z,0.97
2023-02-26T17:51:15.842Z,0.97
2023-02-26T17:53:46.578Z,1.10
2023-02-26T17:56:26.013Z,0.97
2023-02-26T17:58:56.318Z,1.10
2023-02-26T18:01:28.544Z,0.90
2023-02-26T18:03:58.084Z,1.17
2023-02-26T18:06:26.735Z,0.80
2023-02-26T18:08:54.968Z,0.77
2023-02-26T18:11:26.135Z,0.90
2023-02-26T18:13:55.409Z,1.30
2023-02-26T18:16:31.713Z,1.20
2023-02-26T18:19:00.450Z,0.90
2023-02-26T18:21:29.554Z,1.00
2023-02-26T18:23:57.947Z,1.13
2023-02-26T18:26:30.613Z,1.10
2023-02-26T18:28:59.327Z,1.00
2023-02-26T18:31:34.305Z,1.00
2023-02-26T18:34:04.248Z,1.23
2023-02-26T18:36:38.089Z,1.10
2023-02-26T18:39:09.680Z,1.23
2023-02-26T18:41:39.509Z,1.30
2023-02-26T18:44:07.727Z,1.30
2023-02-26T18:46:40.080Z,1.10
2023-02-26T18:49:08.596Z,1.43
2023-02-26T18:51:36.765Z,1.57
2023-02-26T18:54:05.210Z,1.10
2023-02-26T18:56:33.565Z,1.37
2023-02-26T18:59:03.153Z,1.07
2023-02-26T19:01:31.620Z,1.50
2023-02-26T19:03:59.925Z,1.50
2023-02-26T19:06:28.133Z,1.33
2023-02-26T19:08:56.316Z,1.60
2023-02-26T19:11:24.592Z,1.57
2023-02-26T19:13:52.916Z,1.50
2023-02-26T19:16:23.103Z,1.40
2023-02-26T19:18:51.999Z,1.20
2023-02-26T19:21:20.132Z,1.30
2023-02-26T19:23:48.452Z,1.20
2023-02-26T19:26:16.581Z,1.43
2023-02-26T19:28:45.028Z,1.40
2023-02-26T19:31:13.249Z,1.20
2023-02-26T19:33:42.889Z,1.20
2023-02-26T19:36:11.721Z,1.40
2023-02-26T19:38:40.163Z,1.37
2023-02-26T19:41:09.514Z,1.30
2023-02-26T19:43:38.066Z,1.60
2023-02-26T19:46:06.915Z,1.40
2023-02-26T19:48:35.340Z,1.40
2023-02-26T19:51:05.861Z,1.53
2023-02-26T19:53:34.879Z,1.40
2023-02-26T19:56:06.820Z,1.20
2023-02-26T19:58:35.547Z,1.27
2023-02-26T20:01:05.952Z,1.70
2023-02-26T20:03:34.615Z,1.50
2023-02-26T20:06:04.868Z,1.70
2023-02-26T20:08:33.065Z,1.33
2023-02-26T20:11:02.251Z,1.50
2023-02-26T20:13:34.604Z,1.50
2023-02-26T20:16:05.775Z,1.30
2023-02-26T20:18:37.907Z,1.60
2023-02-26T20:21:10.806Z,1.30
2023-02-26T20:23:41.147Z,1.60
2023-02-26T20:26:12.726Z,1.63
2023-02-26T20:28:43.224Z,1.97
2023-02-26T20:31:12.635Z,1.80
2023-02-26T20:33:40.907Z,2.10
2023-02-26T20:36:11.713Z,2.20
2023-02-26T20:38:40.470Z,1.97
2023-02-26T20:41:08.598Z,2.27
2023-02-26T20:43:36.923Z,2.10
2023-02-26T20:46:05.634Z,2.10
2023-02-26T20:48:34.543Z,1.97
2023-02-26T20:51:06.205Z,1.87
2023-02-26T20:53:35.752Z,1.90
2023-02-26T20:56:03.944Z,2.03
2023-02-26T20:58:32.474Z,2.10
2023-02-26T21:01:00.655Z,1.97
2023-02-26T21:03:28.934Z,1.77
2023-02-26T21:05:57.133Z,2.00
2023-02-26T21:08:25.307Z,1.70
2023-02-26T21:10:54.735Z,1.60
2023-02-26T21:13:22.822Z,2.40
2023-02-26T21:15:51.061Z,2.23
2023-02-26T21:18:19.276Z,1.80
2023-02-26T21:20:47.377Z,2.17
2023-02-26T21:23:15.478Z,1.93
2023-02-26T21:25:43.575Z,2.10
2023-02-26T21:28:13.292Z,2.43
2023-02-26T21:30:41.467Z,2.70
2023-02-26T21:33:09.661Z,2.27
2023-02-26T21:35:37.809Z,2.10
2023-02-26T21:38:05.914Z,2.10
2023-02-26T21:40:35.856Z,1.80
2023-02-26T21:43:04.787Z,2.17
2023-02-26T21:45:36.070Z,2.00
2023-02-26T21:48:05.169Z,2.20
2023-02-26T21:50:34.133Z,1.77
2023-02-26T21:53:02.393Z,2.03
2023-02-26T21:55:30.480Z,1.60
2023-02-26T21:57:58.626Z,2.00
2023-02-26T22:00:27.153Z,2.00
2023-02-26T22:02:56.692Z,1.80
2023-02-26T22:05:24.868Z,1.53
2023-02-26T22:07:53.111Z,1.90
2023-02-26T22:10:21.520Z,1.83
2023-02-26T22:12:49.860Z,1.70
2023-02-26T22:15:18.151Z,1.87
2023-02-26T22:17:46.390Z,1.70
2023-02-26T22:20:15.938Z,1.43
2023-02-26T22:22:44.174Z,1.50
2023-02-26T22:25:14.239Z,1.20
2023-02-26T22:27:42.667Z,1.40
2023-02-26T22:30:12.722Z,1.63
2023-02-26T22:32:41.137Z,1.53
2023-02-26T22:35:10.979Z,1.57
2023-02-26T22:37:40.830Z,1.60
2023-02-26T22:40:11.053Z,1.13
2023-02-26T22:42:39.707Z,1.40
2023-02-26T22:45:11.934Z,1.27
2023-02-26T22:47:40.084Z,1.40
2023-02-26T22:50:08.897Z,1.53
2023-02-26T22:52:37.000Z,1.40
2023-02-26T22:55:07.932Z,1.87
2023-02-26T22:57:36.122Z,1.83
2023-02-26T23:00:08.332Z,1.40
2023-02-26T23:02:37.713Z,1.40
2023-02-26T23:05:06.708Z,1.20
2023-02-26T23:07:34.762Z,1.27
2023-02-26T23:10:03.237Z,1.37
2023-02-26T23:12:32.727Z,1.03
2023-02-26T23:15:01.658Z,1.43
2023-02-26T23:17:30.239Z,1.10
2023-02-26T23:19:58.331Z,1.20
2023-02-26T23:22:26.684Z,1.17
2023-02-26T23:24:54.799Z,0.80
2023-02-26T23:27:22.937Z,1.27
2023-02-26T23:29:53.243Z,1.37
2023-02-26T23:32:21.374Z,1.43
2023-02-26T23:34:49.618Z,1.23
2023-02-26T23:37:17.780Z,0.80
2023-02-26T23:39:48.302Z,1.23
2023-02-26T23:42:17.015Z,2.00
2023-02-26T23:44:45.192Z,1.50
2023-02-26T23:47:14.681Z,1.63
2023-02-26T23:49:42.963Z,1.20
2023-02-26T23:52:11.046Z,1.00
2023-02-26T23:54:39.736Z,1.30
2023-02-26T23:57:08.099Z,1.60
2023-02-26T23:59:36.211Z,1.20
